Time;durP1;ratioP1;P1;durP2;ratioP2;P2;SDS_P1;SDS_P2;PMS_P1;PMS_P2;Temp;Humidity;BMP_temperature;BMP_pressure;BME280_temperature;BME280_humidity;BME280_pressure;Samples;Min_cycle;Max_cycle;Signal;HPM_P1;HPM_P2
2022/05/23 00:00:52;;;;;;;8.95;2.78;;;17.40;99.90;;;;;;5052862;28;20044;-62
2022/05/23 00:03:18;;;;;;;11.48;2.90;;;17.40;99.90;;;;;;5036842;28;20044;-62
2022/05/23 00:05:44;;;;;;;10.00;2.70;;;17.40;99.90;;;;;;5032993;28;20116;-63
2022/05/23 00:08:10;;;;;;;10.23;2.78;;;17.30;99.90;;;;;;5032130;28;20137;-62
2022/05/23 00:10:36;;;;;;;7.85;3.05;;;17.30;99.90;;;;;;5045846;28;20024;-62
2022/05/23 00:13:02;;;;;;;8.68;2.92;;;17.20;99.90;;;;;;5051628;28;20086;-63
2022/05/23 00:15:28;;;;;;;6.63;2.97;;;17.20;99.90;;;;;;5061266;28;20032;-63
2022/05/23 00:17:55;;;;;;;7.03;2.53;;;17.20;99.90;;;;;;5052366;28;20025;-67
2022/05/23 00:20:23;;;;;;;8.23;2.80;;;17.10;99.90;;;;;;5064925;28;20020;-64
2022/05/23 00:22:50;;;;;;;7.85;2.92;;;17.10;99.90;;;;;;5072619;28;20017;-63
2022/05/23 00:25:16;;;;;;;7.90;2.70;;;17.00;99.90;;;;;;5052906;28;20086;-62
2022/05/23 00:27:43;;;;;;;6.35;2.67;;;17.00;99.90;;;;;;5065281;28;20032;-63
2022/05/23 00:30:12;;;;;;;7.55;2.83;;;17.00;99.90;;;;;;5058850;28;20031;-62
2022/05/23 00:35:22;;;;;;;11.77;3.92;;;16.80;99.90;;;;;;5062190;28;20051;-64
2022/05/23 00:37:51;;;;;;;11.35;3.65;;;16.80;99.90;;;;;;5067138;28;20468;-64
2022/05/23 00:43:13;;;;;;;7.57;2.97;;;16.70;99.90;;;;;;5055736;28;20124;-63
2022/05/23 00:43:48;;;;;;;8.77;2.70;;;16.70;99.90;;;;;;5040718;28;20029;-63
2022/05/23 00:46:13;;;;;;;7.43;3.05;;;16.60;99.90;;;;;;5066300;28;20051;-62
2022/05/23 00:48:39;;;;;;;7.95;3.00;;;16.60;99.90;;;;;;5055859;28;20448;-62
2022/05/23 00:51:13;;;;;;;6.47;3.03;;;16.50;99.90;;;;;;5063792;28;20067;-63
2022/05/23 00:53:44;;;;;;;12.65;4.45;;;16.50;99.90;;;;;;5065111;28;20025;-63
2022/05/23 00:56:12;;;;;;;9.77;3.20;;;16.50;99.90;;;;;;5055556;28;20058;-64
2022/05/23 00:58:45;;;;;;;7.88;3.10;;;16.50;99.90;;;;;;5067517;28;20563;-63
2022/05/23 01:01:14;;;;;;;8.45;2.85;;;16.50;99.90;;;;;;5059761;28;20142;-62
2022/05/23 01:03:40;;;;;;;10.50;3.15;;;16.40;99.90;;;;;;5059130;28;20017;-64
2022/05/23 01:06:07;;;;;;;8.77;2.63;;;16.40;99.90;;;;;;5048879;28;20056;-63
2022/05/23 01:08:38;;;;;;;8.45;3.50;;;16.40;99.90;;;;;;5050721;28;20079;-62
2022/05/23 01:11:04;;;;;;;9.80;2.97;;;16.40;99.90;;;;;;5052395;28;20420;-65
2022/05/23 01:13:30;;;;;;;6.95;3.15;;;16.40;99.90;;;;;;5052227;28;20008;-63
2022/05/23 01:15:56;;;;;;;10.88;3.25;;;16.40;99.90;;;;;;5051139;28;20028;-65
2022/05/23 01:18:22;;;;;;;9.60;2.63;;;16.40;99.90;;;;;;5050899;28;20420;-61
2022/05/23 01:20:54;;;;;;;9.68;2.90;;;16.40;99.90;;;;;;5051918;28;20104;-63
2022/05/23 01:23:32;;;;;;;8.40;2.55;;;16.30;99.90;;;;;;5051973;28;20092;-67
2022/05/23 01:25:58;;;;;;;10.18;3.13;;;16.30;99.90;;;;;;5051282;28;20042;-63
2022/05/23 01:28:23;;;;;;;12.45;2.90;;;16.30;99.90;;;;;;5050806;28;20021;-62
2022/05/23 01:30:50;;;;;;;9.05;2.92;;;16.30;99.90;;;;;;5050340;28;20060;-64
2022/05/23 01:33:16;;;;;;;7.55;2.50;;;16.20;99.90;;;;;;5050667;28;20028;-62
2022/05/23 01:35:42;;;;;;;6.75;3.00;;;16.20;99.90;;;;;;5052140;28;20021;-64
2022/05/23 01:38:09;;;;;;;11.70;3.63;;;16.10;99.90;;;;;;5051670;28;20009;-64
2022/05/23 01:40:35;;;;;;;9.25;2.90;;;16.10;99.90;;;;;;5047820;28;20021;-62
2022/05/23 01:43:01;;;;;;;8.15;3.15;;;16.10;99.90;;;;;;5050081;28;20410;-63
2022/05/23 01:45:30;;;;;;;9.35;3.40;;;16.10;99.90;;;;;;5053628;28;20512;-62
2022/05/23 01:47:56;;;;;;;8.73;3.22;;;16.00;99.90;;;;;;5049858;28;20057;-65
2022/05/23 01:50:23;;;;;;;8.93;3.15;;;16.00;99.90;;;;;;5054050;28;20021;-63
2022/05/23 01:52:49;;;;;;;8.50;3.00;;;15.90;99.90;;;;;;5050240;28;20532;-62
2022/05/23 01:55:16;;;;;;;8.30;3.15;;;15.90;99.90;;;;;;5051262;28;20028;-67
2022/05/23 01:57:41;;;;;;;8.23;3.05;;;15.90;99.90;;;;;;5050364;28;20037;-62
2022/05/23 02:02:53;;;;;;;10.98;3.35;;;15.90;99.90;;;;;;5050530;28;20020;-63
2022/05/23 02:05:20;;;;;;;8.77;3.25;;;15.90;99.90;;;;;;5050327;28;20037;-62
2022/05/23 02:07:46;;;;;;;8.18;3.30;;;15.80;99.90;;;;;;5050835;28;20025;-62
2022/05/23 02:10:14;;;;;;;6.85;2.55;;;15.80;99.90;;;;;;5052210;28;20235;-63
2022/05/23 02:12:40;;;;;;;7.10;2.97;;;15.80;99.90;;;;;;5054377;28;20058;-66
2022/05/23 02:15:06;;;;;;;10.55;3.08;;;15.80;99.90;;;;;;5052616;28;20102;-65
2022/05/23 02:17:34;;;;;;;10.30;3.60;;;15.80;99.90;;;;;;5059532;28;20376;-67
2022/05/23 02:20:02;;;;;;;7.10;3.15;;;15.70;99.90;;;;;;5058978;28;20012;-63
2022/05/23 02:22:28;;;;;;;8.63;3.28;;;15.70;99.90;;;;;;5054177;28;20024;-62
2022/05/23 02:24:53;;;;;;;7.97;2.95;;;15.70;99.90;;;;;;5054465;28;20044;-62
2022/05/23 02:27:19;;;;;;;8.57;4.18;;;15.70;99.90;;;;;;5053549;28;20346;-64
2022/05/23 02:29:45;;;;;;;6.65;3.00;;;15.70;99.90;;;;;;5058062;28;20090;-63
2022/05/23 02:32:10;;;;;;;10.20;3.63;;;15.70;99.90;;;;;;5054387;28;20052;-62
2022/05/23 02:34:36;;;;;;;7.20;3.30;;;15.70;99.90;;;;;;5054235;28;20075;-64
2022/05/23 02:37:03;;;;;;;10.00;4.10;;;15.70;99.90;;;;;;5054118;28;20120;-64
2022/05/23 02:39:29;;;;;;;12.70;4.40;;;15.70;99.90;;;;;;5054443;28;20132;-62
2022/05/23 02:41:55;;;;;;;9.18;3.50;;;15.70;99.90;;;;;;5053863;28;20025;-62
2022/05/23 02:44:20;;;;;;;9.20;3.10;;;15.70;99.90;;;;;;5053478;28;20079;-66
2022/05/23 02:46:46;;;;;;;10.98;2.83;;;15.70;99.90;;;;;;5053789;28;20024;-63
2022/05/23 02:49:12;;;;;;;12.23;4.43;;;15.80;99.90;;;;;;5054206;28;20100;-61
2022/05/23 02:51:38;;;;;;;11.43;3.63;;;15.80;99.90;;;;;;5055059;28;20109;-61
2022/05/23 02:54:04;;;;;;;10.23;4.20;;;15.80;99.90;;;;;;5053766;28;20052;-63
2022/05/23 02:56:30;;;;;;;11.05;3.28;;;15.90;99.90;;;;;;5053704;28;20032;-63
2022/05/23 02:58:57;;;;;;;11.63;3.83;;;15.90;99.90;;;;;;5052105;28;20508;-63
2022/05/23 03:01:23;;;;;;;8.30;3.75;;;15.90;99.90;;;;;;5053454;28;20040;-63
2022/05/23 03:03:48;;;;;;;8.18;3.28;;;15.90;99.90;;;;;;5052211;28;20392;-62
2022/05/23 03:06:14;;;;;;;10.30;3.50;;;16.00;99.90;;;;;;5052009;28;20491;-62
2022/05/23 03:08:39;;;;;;;6.82;3.13;;;16.00;99.90;;;;;;5055512;28;20103;-63
2022/05/23 03:11:08;;;;;;;7.63;3.40;;;16.00;99.90;;;;;;5053422;28;20075;-66
2022/05/23 03:13:34;;;;;;;9.55;3.55;;;16.00;99.90;;;;;;5053307;28;20070;-62
2022/05/23 03:16:01;;;;;;;9.00;3.17;;;16.00;99.90;;;;;;5053527;28;20024;-64
2022/05/23 03:18:27;;;;;;;8.32;3.03;;;16.00;99.90;;;;;;5053714;28;20442;-62
2022/05/23 03:20:59;;;;;;;9.43;3.28;;;16.00;99.90;;;;;;5049590;28;20032;-62
2022/05/23 03:29:00;;;;;;;7.45;3.03;;;16.00;99.90;;;;;;5038390;28;20091;-62
2022/05/23 03:31:27;;;;;;;7.93;3.60;;;16.00;99.90;;;;;;5053837;28;20175;-62
2022/05/23 03:33:53;;;;;;;7.90;3.15;;;16.10;99.90;;;;;;5053832;28;20080;-67
2022/05/23 03:36:19;;;;;;;9.65;3.05;;;16.10;99.90;;;;;;5053328;28;20373;-66
2022/05/23 03:38:45;;;;;;;7.65;3.00;;;16.10;99.90;;;;;;5053457;28;20021;-61
2022/05/23 03:41:10;;;;;;;9.07;3.33;;;16.10;99.90;;;;;;5053796;28;20024;-62
2022/05/23 03:43:37;;;;;;;9.00;3.40;;;16.20;99.90;;;;;;5053777;28;20017;-66
2022/05/23 03:46:12;;;;;;;10.75;3.30;;;16.20;99.90;;;;;;5052764;28;20517;-62
2022/05/23 03:48:38;;;;;;;10.18;3.53;;;16.20;99.90;;;;;;5053920;28;20028;-65
2022/05/23 03:51:05;;;;;;;9.82;2.95;;;16.30;99.90;;;;;;5052750;28;20423;-62
2022/05/23 03:53:31;;;;;;;7.40;3.33;;;16.30;99.90;;;;;;5053384;28;20377;-66
2022/05/23 03:55:57;;;;;;;8.07;3.28;;;16.30;99.90;;;;;;5051321;28;20025;-63
2022/05/23 03:58:25;;;;;;;8.90;3.33;;;16.30;99.90;;;;;;5053655;28;20033;-66
2022/05/23 04:00:51;;;;;;;10.43;3.10;;;16.40;99.90;;;;;;5052860;28;20029;-62
2022/05/23 04:03:18;;;;;;;9.48;4.13;;;16.40;99.90;;;;;;5053122;28;20074;-62
2022/05/23 04:05:44;;;;;;;9.32;3.53;;;16.50;99.90;;;;;;5052770;28;20465;-64
2022/05/23 04:08:10;;;;;;;6.50;3.00;;;16.50;99.90;;;;;;5052829;28;20055;-65
2022/05/23 04:10:36;;;;;;;8.00;3.17;;;16.50;99.90;;;;;;5052565;28;20029;-65
2022/05/23 04:13:02;;;;;;;8.82;3.42;;;16.40;99.90;;;;;;5052901;28;20025;-64
2022/05/23 04:15:29;;;;;;;10.15;3.80;;;16.30;99.90;;;;;;5051483;28;20523;-64
2022/05/23 04:17:55;;;;;;;7.20;3.88;;;16.30;99.90;;;;;;5051918;28;20051;-62
2022/05/23 04:20:21;;;;;;;7.32;3.33;;;16.20;99.90;;;;;;5051420;28;20107;-66
2022/05/23 04:22:46;;;;;;;8.90;3.50;;;16.10;99.90;;;;;;5053149;28;20111;-62
2022/05/23 04:25:12;;;;;;;9.35;3.70;;;16.00;99.90;;;;;;5052653;28;20457;-62
2022/05/23 04:27:38;;;;;;;10.02;3.72;;;15.90;99.90;;;;;;5052867;28;20127;-62
2022/05/23 04:30:07;;;;;;;7.47;3.50;;;16.00;99.90;;;;;;5052410;28;20096;-63
2022/05/23 04:35:16;;;;;;;9.55;3.38;;;16.00;99.90;;;;;;5034877;28;20524;-67
2022/05/23 04:37:45;;;;;;;6.00;3.80;;;16.20;99.90;;;;;;5052610;28;20028;-66
2022/05/23 04:40:13;;;;;;;9.90;4.32;;;16.30;99.90;;;;;;5047516;28;20025;-63
2022/05/23 04:42:39;;;;;;;8.52;3.20;;;16.40;99.90;;;;;;5052300;28;20025;-61
2022/05/23 04:45:05;;;;;;;9.05;3.72;;;16.60;99.90;;;;;;5052240;28;20048;-62
2022/05/23 04:50:15;;;;;;;9.52;3.53;;;16.90;99.90;;;;;;5042033;28;20110;-63
2022/05/23 04:52:42;;;;;;;11.60;4.03;;;17.00;99.90;;;;;;5052354;28;20056;-65
2022/05/23 04:55:08;;;;;;;9.00;3.45;;;17.00;99.90;;;;;;5051980;28;20028;-63
2022/05/23 04:57:34;;;;;;;7.32;3.45;;;17.10;99.90;;;;;;5051853;28;20021;-63
2022/05/23 05:00:01;;;;;;;11.02;3.90;;;17.10;99.90;;;;;;5052137;28;20029;-62
2022/05/23 05:02:26;;;;;;;14.90;4.30;;;17.20;99.90;;;;;;5051328;28;20036;-66
2022/05/23 05:04:52;;;;;;;9.15;3.83;;;17.30;99.90;;;;;;5046351;28;20040;-62
2022/05/23 05:07:17;;;;;;;10.02;3.70;;;17.30;99.90;;;;;;5068227;28;20101;-63
2022/05/23 05:09:43;;;;;;;10.32;3.53;;;17.50;99.90;;;;;;5066038;28;20031;-62
2022/05/23 05:12:09;;;;;;;12.35;4.32;;;17.60;99.90;;;;;;5046447;28;20029;-64
2022/05/23 05:14:34;;;;;;;12.23;4.57;;;17.70;99.90;;;;;;5050722;28;20060;-62
2022/05/23 05:17:01;;;;;;;55.53;26.15;;;17.80;99.90;;;;;;5051606;28;20029;-61
2022/05/23 05:19:27;;;;;;;51.60;22.88;;;18.00;99.90;;;;;;5050304;28;20024;-63
2022/05/23 05:21:53;;;;;;;17.90;6.68;;;18.10;99.90;;;;;;5051368;28;20021;-65
2022/05/23 05:24:18;;;;;;;12.25;4.55;;;18.20;99.90;;;;;;5051674;28;20027;-63
2022/05/23 05:26:44;;;;;;;8.73;3.80;;;18.30;99.90;;;;;;5051592;28;20035;-63
2022/05/23 05:29:09;;;;;;;12.00;4.00;;;18.40;99.90;;;;;;5052478;28;20075;-63
2022/05/23 05:31:49;;;;;;;10.60;3.80;;;18.50;99.90;;;;;;5051403;28;20048;-65
2022/05/23 05:34:24;;;;;;;11.15;4.00;;;18.60;99.90;;;;;;5052121;28;20082;-62
2022/05/23 05:37:00;;;;;;;11.48;3.80;;;18.70;99.90;;;;;;5051797;28;20473;-66
2022/05/23 05:39:31;;;;;;;8.00;3.42;;;18.70;99.90;;;;;;5052050;28;20107;-63
2022/05/23 05:42:22;;;;;;;9.43;3.80;;;18.80;99.90;;;;;;5051160;28;20036;-63
2022/05/23 05:44:53;;;;;;;10.17;3.30;;;18.90;99.90;;;;;;5054795;28;20120;-65
2022/05/23 05:47:20;;;;;;;9.98;3.40;;;19.10;99.90;;;;;;5056305;28;20702;-63
2022/05/23 05:49:50;;;;;;;7.43;3.40;;;19.20;99.90;;;;;;5055000;28;20462;-63
2022/05/23 05:52:18;;;;;;;9.50;3.45;;;19.30;99.90;;;;;;5050786;28;20029;-67
2022/05/23 05:54:45;;;;;;;6.97;3.70;;;19.30;99.90;;;;;;5052017;28;20029;-64
2022/05/23 05:57:12;;;;;;;9.50;3.63;;;19.40;99.90;;;;;;5054333;28;20136;-62
2022/05/23 05:59:38;;;;;;;8.63;3.72;;;19.60;99.90;;;;;;5055672;28;20021;-62
2022/05/23 06:02:06;;;;;;;10.18;4.43;;;20.00;99.90;;;;;;5054867;28;20075;-62
2022/05/23 06:04:32;;;;;;;10.18;4.03;;;20.40;99.90;;;;;;5055705;28;20029;-62
2022/05/23 06:12:25;;;;;;;9.93;4.22;;;22.20;97.90;;;;;;5055289;28;20113;-64
2022/05/23 06:14:51;;;;;;;8.25;3.70;;;22.80;96.90;;;;;;5056092;28;20080;-64
2022/05/23 06:17:17;;;;;;;6.95;3.30;;;23.30;96.10;;;;;;5055275;28;20032;-62
2022/05/23 06:19:44;;;;;;;9.98;4.28;;;23.50;95.60;;;;;;5055239;28;20032;-67
2022/05/23 06:22:11;;;;;;;17.27;4.70;;;23.50;95.50;;;;;;5055469;28;20036;-63
2022/05/23 06:24:37;;;;;;;10.48;4.30;;;23.30;95.40;;;;;;5055387;28;20043;-62
2022/05/23 06:27:05;;;;;;;9.13;3.90;;;23.20;95.40;;;;;;5055172;28;20025;-62
2022/05/23 06:29:31;;;;;;;9.45;3.97;;;23.10;95.50;;;;;;5055765;28;20013;-66
2022/05/23 06:31:57;;;;;;;9.10;4.28;;;23.00;95.90;;;;;;5055419;28;20132;-62
2022/05/23 06:34:22;;;;;;;8.60;3.90;;;22.80;95.60;;;;;;5055670;28;20457;-65
2022/05/23 06:36:48;;;;;;;15.48;4.82;;;22.70;95.80;;;;;;5054524;28;20386;-62
2022/05/23 06:39:13;;;;;;;10.68;4.55;;;22.60;95.90;;;;;;5055447;28;20459;-63
2022/05/23 06:41:39;;;;;;;14.70;5.53;;;22.50;96.10;;;;;;5054484;28;20029;-61
2022/05/23 06:44:05;;;;;;;8.88;4.60;;;22.30;96.30;;;;;;5055521;28;20280;-62
2022/05/23 06:46:33;;;;;;;12.88;5.28;;;22.20;96.50;;;;;;5053226;28;20129;-64
2022/05/23 06:48:59;;;;;;;11.98;5.15;;;22.10;96.60;;;;;;5054353;28;20461;-61
2022/05/23 06:51:24;;;;;;;11.52;5.03;;;22.00;96.80;;;;;;5054030;28;20123;-61
2022/05/23 06:53:52;;;;;;;12.45;4.88;;;21.80;97.00;;;;;;5055440;28;20033;-65
2022/05/23 06:56:18;;;;;;;14.18;5.75;;;21.60;97.40;;;;;;5054160;28;20029;-64
2022/05/23 06:58:43;;;;;;;10.02;5.18;;;21.40;97.50;;;;;;5055000;28;20028;-62
2022/05/23 07:01:11;;;;;;;12.40;5.45;;;21.40;97.80;;;;;;5053824;28;20058;-62
2022/05/23 07:03:36;;;;;;;15.30;5.68;;;21.50;98.00;;;;;;5054778;28;20021;-62
2022/05/23 07:14:18;;;;;;;9.50;5.22;;;21.90;97.40;;;;;;5053073;28;20102;-62
2022/05/23 07:16:43;;;;;;;12.43;5.75;;;22.00;97.40;;;;;;5054747;28;20450;-66
2022/05/23 07:19:09;;;;;;;14.15;5.78;;;22.10;97.30;;;;;;5053910;28;20105;-65
2022/05/23 07:21:35;;;;;;;15.40;5.50;;;22.20;97.20;;;;;;5055158;28;20029;-62
2022/05/23 07:24:01;;;;;;;17.20;6.75;;;22.50;96.90;;;;;;5050709;28;20067;-62
2022/05/23 07:26:27;;;;;;;10.82;5.43;;;22.60;96.80;;;;;;5053346;28;20021;-63
2022/05/23 07:28:53;;;;;;;10.68;5.65;;;22.80;96.50;;;;;;5054049;28;20373;-63
2022/05/23 07:31:19;;;;;;;15.23;6.10;;;23.00;96.10;;;;;;5053673;28;20041;-62
2022/05/23 07:33:45;;;;;;;15.40;6.38;;;23.10;96.10;;;;;;5053963;28;20048;-62
2022/05/23 07:36:12;;;;;;;11.75;6.07;;;23.20;96.00;;;;;;5053433;28;20040;-62
2022/05/23 07:38:38;;;;;;;15.55;6.55;;;23.20;96.00;;;;;;5052605;28;20029;-62
2022/05/23 07:41:06;;;;;;;10.80;5.72;;;23.20;95.90;;;;;;5053819;28;20021;-62
2022/05/23 07:43:36;;;;;;;10.30;5.78;;;23.40;95.90;;;;;;5053454;28;20029;-61
2022/05/23 07:46:12;;;;;;;31.42;9.77;;;23.60;95.70;;;;;;5053014;28;20044;-62
2022/05/23 07:48:40;;;;;;;16.67;6.35;;;23.80;95.60;;;;;;5053307;28;20025;-62
2022/05/23 07:51:06;;;;;;;40.83;15.15;;;24.00;95.30;;;;;;5053421;28;20020;-62
2022/05/23 08:01:53;;;;;;;14.93;6.78;;;23.70;95.20;;;;;;5053972;28;20138;-66
2022/05/23 08:04:19;;;;;;;15.73;7.22;;;23.70;95.30;;;;;;5053461;28;20100;-61
2022/05/23 08:06:46;;;;;;;18.95;7.85;;;23.60;95.40;;;;;;5053141;28;20028;-65
2022/05/23 08:09:12;;;;;;;15.90;7.38;;;23.60;95.50;;;;;;5051109;28;20437;-62
2022/05/23 08:11:44;;;;;;;19.10;7.70;;;23.60;95.50;;;;;;5050203;28;20032;-65
2022/05/23 08:14:11;;;;;;;17.02;7.38;;;23.70;95.40;;;;;;5059594;28;20083;-61
2022/05/23 08:16:36;;;;;;;14.48;6.78;;;24.00;95.20;;;;;;5053443;28;20100;-64
2022/05/23 08:19:04;;;;;;;14.93;7.00;;;24.20;94.90;;;;;;5052839;28;20140;-64
2022/05/23 08:21:30;;;;;;;14.25;7.35;;;24.50;94.90;;;;;;5053165;28;20118;-67
2022/05/23 08:23:56;;;;;;;15.90;7.18;;;24.80;94.60;;;;;;5049179;28;20446;-62
2022/05/23 08:26:22;;;;;;;13.70;7.22;;;25.00;94.10;;;;;;5052707;28;20095;-63
2022/05/23 08:28:49;;;;;;;15.05;6.57;;;25.10;94.00;;;;;;5052421;28;20017;-63
2022/05/23 08:31:15;;;;;;;15.18;7.30;;;25.40;93.60;;;;;;5053089;28;20040;-62
2022/05/23 08:33:41;;;;;;;15.65;7.03;;;25.60;93.40;;;;;;5050972;28;20029;-66
2022/05/23 08:36:07;;;;;;;14.75;6.95;;;25.70;93.60;;;;;;5050457;28;20111;-63
2022/05/23 08:38:32;;;;;;;12.38;6.75;;;26.10;93.30;;;;;;5053264;28;20112;-63
2022/05/23 08:41:18;;;;;;;15.73;6.82;;;26.50;92.50;;;;;;5052951;28;20051;-63
2022/05/23 08:43:51;;;;;;;17.05;8.02;;;27.20;91.70;;;;;;5032935;28;20410;-63
2022/05/23 08:46:26;;;;;;;13.05;6.75;;;28.00;91.00;;;;;;5039335;28;20040;-67
2022/05/23 08:49:06;;;;;;;14.48;6.47;;;28.80;90.20;;;;;;5052610;28;20033;-63
2022/05/23 08:51:49;;;;;;;16.42;7.35;;;29.80;88.10;;;;;;5052699;28;20165;-66
2022/05/23 08:54:24;;;;;;;14.55;7.30;;;31.10;85.30;;;;;;5051034;28;20057;-63
2022/05/23 08:56:53;;;;;;;11.77;6.60;;;32.30;81.60;;;;;;5052017;28;20029;-62
2022/05/23 08:59:35;;;;;;;12.95;6.97;;;33.20;78.60;;;;;;5052638;28;20400;-65
2022/05/23 09:02:06;;;;;;;12.90;6.43;;;33.70;76.20;;;;;;5049547;28;20495;-63
2022/05/23 09:04:43;;;;;;;11.18;6.32;;;33.70;74.60;;;;;;5050175;28;20372;-63
2022/05/23 09:07:24;;;;;;;12.55;6.78;;;33.70;72.90;;;;;;5051200;28;20468;-64
2022/05/23 09:09:51;;;;;;;14.55;6.30;;;33.90;72.20;;;;;;5045988;28;20372;-63
2022/05/23 09:12:17;;;;;;;13.30;6.20;;;34.10;71.00;;;;;;5051616;28;20055;-63
2022/05/23 09:14:43;;;;;;;12.43;6.28;;;34.30;70.70;;;;;;5049629;28;20063;-66
2022/05/23 09:17:25;;;;;;;8.93;5.57;;;34.50;68.40;;;;;;5051932;28;20021;-62
2022/05/23 09:20:11;;;;;;;12.73;5.95;;;35.00;67.70;;;;;;5053011;28;20021;-63
2022/05/23 09:22:45;;;;;;;15.45;6.60;;;35.70;66.20;;;;;;5039840;28;20024;-63
2022/05/23 09:25:13;;;;;;;14.32;6.25;;;36.00;64.20;;;;;;5060169;28;20036;-64
2022/05/23 09:27:43;;;;;;;16.10;6.00;;;36.20;63.70;;;;;;5062108;28;20016;-65
2022/05/23 09:30:13;;;;;;;15.10;6.05;;;36.70;62.50;;;;;;5059102;28;20032;-62
2022/05/23 09:33:08;;;;;;;14.43;6.17;;;37.10;61.10;;;;;;5052120;28;20029;-63
2022/05/23 09:35:42;;;;;;;12.88;6.15;;;37.40;60.40;;;;;;5057246;28;20293;-63
2022/05/23 09:38:25;;;;;;;15.95;5.97;;;37.50;59.40;;;;;;5072323;28;20024;-63
2022/05/23 09:40:52;;;;;;;11.02;5.45;;;37.10;58.50;;;;;;5055551;28;20148;-62
2022/05/23 09:49:23;;;;;;;14.25;5.38;;;35.10;59.60;;;;;;5052026;28;20029;-64
2022/05/23 09:52:13;;;;;;;13.00;6.30;;;34.40;59.90;;;;;;5032589;28;20030;-62
2022/05/23 09:54:44;;;;;;;15.63;6.22;;;33.80;60.60;;;;;;5036848;28;20048;-65
2022/05/23 09:57:32;;;;;;;11.90;5.85;;;33.20;61.60;;;;;;5052242;28;20025;-63
2022/05/23 10:00:08;;;;;;;11.68;5.80;;;32.70;62.40;;;;;;5050834;28;20032;-63
2022/05/23 10:02:39;;;;;;;12.70;6.15;;;32.40;63.00;;;;;;5053433;28;20029;-63
2022/05/23 10:05:21;;;;;;;11.05;6.47;;;31.90;63.30;;;;;;5052337;28;20027;-62
2022/05/23 10:07:50;;;;;;;14.30;6.47;;;31.40;64.10;;;;;;5032105;28;20025;-65
2022/05/23 10:10:33;;;;;;;12.43;6.15;;;30.80;65.50;;;;;;5032272;28;20084;-63
2022/05/23 10:13:24;;;;;;;12.55;6.45;;;30.10;66.70;;;;;;5032296;28;20036;-67
2022/05/23 10:15:59;;;;;;;15.00;7.25;;;29.60;68.40;;;;;;5032191;28;20018;-63
2022/05/23 10:18:43;;;;;;;15.55;7.65;;;29.10;69.50;;;;;;5040059;28;20013;-66
2022/05/23 10:21:26;;;;;;;15.88;7.97;;;28.70;70.20;;;;;;5050917;28;20055;-63
2022/05/23 10:24:04;;;;;;;19.45;9.45;;;28.40;70.90;;;;;;5052091;28;20104;-63
2022/05/23 10:26:33;;;;;;;19.23;9.20;;;28.20;71.80;;;;;;5054714;28;20700;-62
2022/05/23 10:29:17;;;;;;;19.83;9.80;;;27.90;72.40;;;;;;5071689;28;20453;-63
2022/05/23 10:31:49;;;;;;;19.75;11.05;;;27.60;73.20;;;;;;5072385;28;20044;-67
2022/05/23 10:34:24;;;;;;;;;;;27.40;77.00;;;;;;5061823;28;20380;-64
2022/05/23 10:36:53;;;;;;;23.02;11.98;;;27.10;79.70;;;;;;5055184;28;19922;-64
2022/05/23 10:42:11;;;;;;;19.98;11.80;;;26.50;83.70;;;;;;5054920;28;20028;-67
2022/05/23 10:44:48;;;;;;;18.08;10.98;;;26.20;85.60;;;;;;5054850;28;20029;-63
2022/05/23 10:47:22;;;;;;;23.55;11.43;;;25.90;86.90;;;;;;5054646;28;20025;-63
2022/05/23 10:50:13;;;;;;;19.65;10.85;;;25.80;87.60;;;;;;5054848;28;20032;-63
2022/05/23 10:52:50;;;;;;;19.98;11.68;;;25.70;87.00;;;;;;5054065;28;20091;-65
2022/05/23 10:55:26;;;;;;;20.65;11.85;;;25.60;87.40;;;;;;5054566;28;20029;-62
2022/05/23 10:58:02;;;;;;;22.73;13.32;;;25.40;87.40;;;;;;5050080;28;20021;-64
2022/05/23 11:00:40;;;;;;;27.33;13.63;;;25.20;90.10;;;;;;5054867;28;20075;-64
2022/05/23 11:03:24;;;;;;;25.40;13.23;;;25.00;90.60;;;;;;5054727;28;20059;-63
2022/05/23 11:06:02;;;;;;;23.50;12.88;;;24.90;90.90;;;;;;5054864;28;20059;-64
2022/05/23 11:09:01;;;;;;;23.90;12.90;;;24.80;91.60;;;;;;5047791;28;20025;-64
2022/05/23 11:11:53;;;;;;;26.65;14.43;;;24.80;92.00;;;;;;5034709;28;20017;-63
2022/05/23 11:14:45;;;;;;;26.80;14.75;;;24.80;91.40;;;;;;5038375;28;20034;-62
2022/05/23 11:17:37;;;;;;;26.48;14.50;;;24.70;91.80;;;;;;5053710;28;20170;-63
2022/05/23 11:20:20;;;;;;;24.60;12.75;;;24.60;91.80;;;;;;5074488;28;20069;-63
2022/05/23 11:22:53;;;;;;;23.00;13.10;;;24.60;91.90;;;;;;5063198;28;20033;-64
2022/05/23 11:25:32;;;;;;;24.95;14.20;;;24.70;92.00;;;;;;5053635;28;20041;-65
2022/05/23 11:33:46;;;;;;;;;;;25.00;91.70;;;;;;5051273;28;20027;-62
2022/05/23 11:36:15;;;;;;;22.70;13.43;;;25.10;91.80;;;;;;5050382;28;19900;-66
2022/05/23 11:38:45;;;;;;;26.25;13.50;;;25.30;91.70;;;;;;5052769;28;20096;-63
2022/05/23 11:41:31;;;;;;;23.20;12.32;;;25.60;91.60;;;;;;5052476;28;20059;-63
2022/05/23 11:43:56;;;;;;;27.88;13.73;;;25.80;91.30;;;;;;5050241;28;20092;-66
2022/05/23 11:47:05;;;;;;;21.73;12.52;;;26.00;91.10;;;;;;5048866;28;20136;-63
2022/05/23 11:49:45;;;;;;;26.08;13.15;;;26.20;91.00;;;;;;5053638;28;20033;-65
2022/05/23 11:52:40;;;;;;;25.90;12.45;;;26.20;91.10;;;;;;5053630;28;20032;-64
2022/05/23 11:55:44;;;;;;;19.05;11.32;;;26.60;90.70;;;;;;5053812;28;20025;-66
2022/05/23 11:58:49;;;;;;;21.00;12.18;;;26.90;90.20;;;;;;5041653;28;20148;-66
2022/05/23 12:01:14;;;;;;;20.50;11.25;;;27.00;89.40;;;;;;5031546;28;20103;-63
2022/05/23 12:03:52;;;;;;;20.17;11.82;;;27.00;88.90;;;;;;5051878;28;20033;-64
2022/05/23 12:06:23;;;;;;;22.17;12.13;;;26.70;89.60;;;;;;5053709;28;20082;-63
2022/05/23 12:09:16;;;;;;;19.63;11.48;;;26.70;90.10;;;;;;5053125;28;20398;-66
2022/05/23 12:11:51;;;;;;;26.75;12.73;;;26.70;89.70;;;;;;5053568;28;20445;-66
2022/05/23 12:14:33;;;;;;;21.90;13.10;;;26.60;90.10;;;;;;5068482;28;20020;-66
2022/05/23 12:16:58;;;;;;;;;;;26.50;90.40;;;;;;5033631;28;20021;-63
2022/05/23 12:19:38;;;;;;;17.88;10.90;;;26.50;90.10;;;;;;5032887;28;19950;-66
2022/05/23 12:22:22;;;;;;;19.58;10.85;;;26.50;90.30;;;;;;5033182;28;20085;-63
2022/05/23 12:25:08;;;;;;;22.70;11.48;;;26.80;90.60;;;;;;5043318;28;20028;-63
2022/05/23 12:27:40;;;;;;;19.50;11.35;;;27.00;89.70;;;;;;5059372;28;20049;-63
2022/05/23 12:30:21;;;;;;;19.15;11.32;;;27.10;89.80;;;;;;5061416;28;20047;-66
2022/05/23 12:32:50;;;;;;;19.15;12.07;;;27.50;88.80;;;;;;5071641;28;20016;-64
2022/05/23 12:35:19;;;;;;;20.15;10.95;;;27.80;87.80;;;;;;5071398;28;20025;-64
2022/05/23 12:38:01;;;;;;;18.85;11.38;;;27.90;87.80;;;;;;5070870;28;20403;-64
2022/05/23 12:40:39;;;;;;;19.58;11.35;;;27.90;87.40;;;;;;5072649;28;20021;-62
2022/05/23 12:43:16;;;;;;;18.38;11.50;;;27.90;87.30;;;;;;5072693;28;20456;-62
2022/05/23 12:46:04;;;;;;;19.33;11.77;;;27.80;87.60;;;;;;5066476;28;20458;-62
2022/05/23 12:48:38;;;;;;;20.20;10.88;;;27.50;88.20;;;;;;5052403;28;20100;-64
2022/05/23 12:51:08;;;;;;;18.95;11.07;;;27.00;88.80;;;;;;5052990;28;20059;-62
2022/05/23 12:53:59;;;;;;;20.08;12.13;;;26.50;90.00;;;;;;5052215;28;20064;-62
2022/05/23 12:56:46;;;;;;;19.43;12.30;;;26.10;90.50;;;;;;5046505;28;20037;-62
2022/05/23 12:59:24;;;;;;;18.85;11.93;;;25.50;91.20;;;;;;5052260;28;20032;-63
2022/05/23 13:01:59;;;;;;;24.55;12.10;;;25.00;91.80;;;;;;5052845;28;20021;-64
2022/05/23 13:04:33;;;;;;;20.98;12.30;;;24.70;92.30;;;;;;5042935;28;20108;-63
2022/05/23 13:07:24;;;;;;;21.90;12.57;;;24.50;92.80;;;;;;5060036;28;20028;-63
2022/05/23 13:09:58;;;;;;;20.40;13.07;;;24.30;93.30;;;;;;5044277;28;20365;-64
2022/05/23 13:12:27;;;;;;;22.25;12.52;;;24.20;94.00;;;;;;5041837;28;20030;-63
2022/05/23 13:15:00;;;;;;;23.50;12.48;;;24.00;94.50;;;;;;5043095;28;20037;-63
2022/05/23 13:17:30;;;;;;;19.38;12.05;;;23.80;94.60;;;;;;5070787;28;20029;-65
2022/05/23 13:22:40;;;;;;;27.80;15.30;;;23.70;95.20;;;;;;5049540;28;20121;-66
2022/05/23 13:25:06;;;;;;;27.15;18.10;;;23.60;96.50;;;;;;5051458;28;20441;-66
2022/05/23 13:27:39;;;;;;;28.58;18.30;;;23.40;96.90;;;;;;5050525;28;20552;-65
2022/05/23 13:30:17;;;;;;;27.48;18.65;;;23.10;97.70;;;;;;5048194;28;20048;-63
2022/05/23 13:32:42;;;;;;;31.52;19.52;;;22.70;98.60;;;;;;5051417;28;20057;-64
2022/05/23 13:35:24;;;;;;;30.98;20.05;;;22.30;99.50;;;;;;5052115;28;20064;-67
2022/05/23 13:37:50;;;;;;;33.75;22.52;;;21.70;99.90;;;;;;5067439;28;20028;-62
2022/05/23 13:40:25;;;;;;;36.13;23.95;;;21.20;99.90;;;;;;5048746;28;20017;-65
2022/05/23 13:42:50;;;;;;;36.00;22.90;;;20.80;99.90;;;;;;5051525;28;20053;-66
2022/05/23 13:45:19;;;;;;;35.55;23.83;;;20.40;99.90;;;;;;5051438;28;20535;-64
2022/05/23 13:47:52;;;;;;;35.47;23.80;;;20.10;99.90;;;;;;5067808;28;20021;-66
2022/05/23 13:50:43;;;;;;;35.28;25.20;;;19.90;99.90;;;;;;5061815;28;20025;-63
2022/05/23 13:53:11;;;;;;;37.95;25.83;;;19.60;99.90;;;;;;5051919;28;20021;-62